Startpagina
METAR-TAF:

METAR-TAF

Vliegvelden :

Productieplatform

P11-b, Nederland

breedte: 52-21-36N, lengte: 3-20-30E, hoogte: 24 m

Actueel weer

Dit bericht is 28 minuten geleden gemaakt, om 10:55 UTC
Wind 24 kt uit het zuidzuidwesten, variërend tussen het zuidoosten en het westnoordwesten
Temperatuur 14°C
Vochtigheid 82%
Druk 1002 hPa
Zicht 10 km of meer
Weinig wolken op 1300 ft
Verspreide wolken op 2800 ft
Gebroken wolken op 4200 ft
lichte regen,

METAR: EHPG 161055Z AUTO 20024KT 140V290 9999 -RA FEW013 SCT028 BKN042 14/11 Q1002

Tijdstip: 13:23 (11:23 UTC)


TAF: ontbreekt

Waarnemingen en weersverwachtingen van meer dan 4000 vliegvelden (METAR en TAF).

De beschikbare stations zijn de gele en rode punten op de kaart.

Ga met uw muis naar het station om de naam te zien.

Klik dan om waarnemingen en weersverwachtingen te zien.

kaart wijzigen: klik op de groene knoppen met een zwart kruis om in te zoomen, op de groene knop met een streepje om uit te zoomen of op de groene pijlen voor aangrenzende kaarten.


METAR-TAF: